Time;durP1;ratioP1;P1;durP2;ratioP2;P2;SDS_P1;SDS_P2;PMS_P1;PMS_P2;Temp;Humidity;BMP_temperature;BMP_pressure;BME280_temperature;BME280_humidity;BME280_pressure;Samples;Min_cycle;Max_cycle;Signal;HPM_P1;HPM_P2
2024/04/14 00:04:31;;;;;;;5.07;2.30;;;;;;;18.00;58.56;100690.88;11285866;26;20010;-58
2024/04/14 00:09:33;;;;;;;8.93;2.22;;;;;;;17.91;59.20;100689.47;11285920;26;20349;-60
2024/04/14 00:14:35;;;;;;;5.43;2.38;;;;;;;17.90;59.10;100679.63;11289547;26;19994;-59
2024/04/14 00:19:36;;;;;;;5.97;2.03;;;;;;;17.81;59.46;100687.19;11293125;26;20009;-58
2024/04/14 00:24:38;;;;;;;3.85;2.20;;;;;;;17.82;59.21;100669.78;11287209;26;19998;-58
2024/04/14 00:29:40;;;;;;;8.38;2.17;;;;;;;17.80;59.25;100666.47;11304029;26;20074;-59
2024/04/14 00:34:41;;;;;;;5.57;2.00;;;;;;;17.83;59.38;100662.47;11294564;26;19999;-58
2024/04/14 00:39:43;;;;;;;5.38;1.75;;;;;;;17.83;59.65;100657.03;11295144;26;20002;-58
2024/04/14 00:44:45;;;;;;;5.10;2.20;;;;;;;17.83;59.21;100660.63;11290799;26;20521;-58
2024/04/14 00:49:48;;;;;;;7.32;1.90;;;;;;;17.80;59.57;100658.31;11299170;26;20002;-59
2024/04/14 00:54:50;;;;;;;4.60;1.95;;;;;;;17.76;59.67;100661.69;11279745;26;20003;-57
2024/04/14 00:59:52;;;;;;;5.40;2.40;;;;;;;17.70;59.75;100657.94;11292235;26;20120;-58
2024/04/14 01:04:54;;;;;;;4.32;2.38;;;;;;;17.58;60.06;100659.66;11294210;26;21219;-58
2024/04/14 01:09:57;;;;;;;4.88;2.78;;;;;;;17.56;60.12;100654.44;11288010;26;20010;-58
2024/04/14 01:14:59;;;;;;;4.10;2.55;;;;;;;17.48;60.24;100657.38;11292146;26;20021;-60
2024/04/14 01:20:00;;;;;;;5.97;2.65;;;;;;;17.42;60.48;100667.22;11290902;26;20687;-60
2024/04/14 01:25:06;;;;;;;3.78;2.33;;;;;;;17.35;60.52;100652.81;11296119;26;20013;-60
2024/04/14 01:30:09;;;;;;;6.30;2.67;;;;;;;17.28;60.48;100651.16;11290325;26;20003;-60
2024/04/14 01:35:11;;;;;;;4.45;2.88;;;;;;;17.28;60.51;100643.88;11292920;26;20006;-59
2024/04/14 01:40:13;;;;;;;4.60;2.78;;;;;;;17.27;60.72;100638.63;11284561;26;20003;-60
2024/04/14 01:45:15;;;;;;;5.53;2.28;;;;;;;17.22;60.85;100642.00;11302191;26;20014;-60
2024/04/14 01:50:17;;;;;;;7.57;2.72;;;;;;;17.17;60.74;100655.38;11287067;26;20006;-60
2024/04/14 01:55:18;;;;;;;6.70;2.72;;;;;;;17.16;61.10;100653.69;11293975;26;20003;-60
2024/04/14 02:00:20;;;;;;;4.57;2.35;;;;;;;17.10;61.18;100652.69;11295484;26;20455;-59
2024/04/14 02:05:24;;;;;;;4.38;2.53;;;;;;;17.04;61.25;100639.91;11291995;26;20006;-60
2024/04/14 02:10:26;;;;;;;5.30;1.98;;;;;;;17.02;61.27;100633.88;11294035;26;20011;-58
2024/04/14 02:15:28;;;;;;;5.30;2.58;;;;;;;17.02;61.42;100640.16;11289650;26;19998;-58
2024/04/14 02:20:30;;;;;;;6.00;2.28;;;;;;;17.00;61.66;100641.38;11294509;26;20342;-58
2024/04/14 02:25:31;;;;;;;3.85;2.22;;;;;;;17.00;61.78;100644.97;11290528;26;20005;-60
2024/04/14 02:30:33;;;;;;;5.65;2.17;;;;;;;17.02;61.42;100651.03;11290199;26;20014;-60
2024/04/14 02:35:34;;;;;;;6.55;2.45;;;;;;;17.01;61.39;100643.91;11291343;26;20334;-60
2024/04/14 02:40:36;;;;;;;4.15;2.33;;;;;;;17.02;61.37;100650.16;11302820;26;20010;-63
2024/04/14 02:45:37;;;;;;;5.60;2.92;;;;;;;16.99;61.66;100650.59;11294589;26;20006;-64
2024/04/14 02:50:39;;;;;;;4.13;2.08;;;;;;;16.98;61.91;100657.06;11287155;26;20019;-64
2024/04/14 02:55:41;;;;;;;6.78;2.30;;;;;;;16.92;61.86;100639.72;11293374;26;20021;-63
2024/04/14 03:00:42;;;;;;;3.40;2.15;;;;;;;16.90;62.17;100639.09;11288558;26;20029;-62
2024/04/14 03:05:44;;;;;;;3.65;2.92;;;;;;;16.86;61.84;100640.56;11291244;26;20890;-64
2024/04/14 03:10:56;;;;;;;7.78;2.90;;;;;;;16.77;62.35;100636.38;11288551;26;20003;-64
2024/04/14 03:16:01;;;;;;;4.20;2.20;;;;;;;16.73;62.40;100640.56;11286263;26;19994;-60
2024/04/14 03:21:03;;;;;;;4.78;2.55;;;;;;;16.67;62.64;100655.81;11283947;26;20097;-60
2024/04/14 03:26:05;;;;;;;4.82;2.75;;;;;;;16.56;62.82;100661.84;11291753;26;19999;-60
2024/04/14 03:31:07;;;;;;;5.90;3.30;;;;;;;16.32;63.33;100666.00;11291664;26;20009;-60
2024/04/14 03:36:08;;;;;;;5.88;2.85;;;;;;;16.19;63.69;100664.94;11290137;26;20030;-60
2024/04/14 03:41:10;;;;;;;8.65;3.67;;;;;;;16.08;63.74;100664.69;11286912;26;20437;-61
2024/04/14 03:46:11;;;;;;;7.00;3.80;;;;;;;16.01;64.18;100665.50;11291661;26;20029;-59
2024/04/14 03:51:13;;;;;;;9.15;4.00;;;;;;;15.90;64.55;100663.41;11285491;26;19999;-59
2024/04/14 03:56:14;;;;;;;6.80;4.07;;;;;;;15.86;64.69;100667.56;11284033;26;20017;-59
2024/04/14 04:01:17;;;;;;;9.18;3.65;;;;;;;15.85;64.77;100669.41;11285099;26;20525;-59
2024/04/14 04:06:18;;;;;;;6.40;3.67;;;;;;;15.88;64.50;100683.59;11299806;26;19999;-59
2024/04/14 04:11:20;;;;;;;6.47;3.88;;;;;;;15.67;64.69;100685.38;11295723;26;20002;-60
2024/04/14 04:16:22;;;;;;;12.10;4.82;;;;;;;15.66;65.06;100681.81;11301349;26;19999;-59
2024/04/14 04:21:23;;;;;;;3.85;2.70;;;;;;;15.70;65.21;100678.69;11294207;26;20371;-59
2024/04/14 04:26:25;;;;;;;8.73;4.38;;;;;;;15.80;65.01;100696.31;11299659;26;20079;-59
2024/04/14 04:31:26;;;;;;;6.45;3.38;;;;;;;15.79;65.28;100696.50;11290327;26;20017;-64
2024/04/14 04:36:28;;;;;;;5.07;2.72;;;;;;;15.96;64.55;100702.41;11294527;26;20006;-62
2024/04/14 04:41:30;;;;;;;8.73;3.78;;;;;;;16.06;64.21;100703.69;11296062;26;19998;-62
2024/04/14 04:46:32;;;;;;;3.80;2.00;;;;;;;16.08;63.92;100714.34;11304380;26;20002;-59
2024/04/14 04:51:33;;;;;;;4.50;1.50;;;;;;;16.12;63.86;100717.50;11309754;26;20049;-59
2024/04/14 04:56:35;;;;;;;5.35;1.80;;;;;;;16.14;63.01;100727.09;11315651;26;20002;-62
2024/04/14 05:01:37;;;;;;;8.95;3.40;;;;;;;16.13;63.38;100721.88;11306744;26;20013;-60
2024/04/14 05:06:38;;;;;;;4.22;2.13;;;;;;;16.04;63.32;100737.50;11285915;26;19999;-63
2024/04/14 05:11:40;;;;;;;6.32;2.05;;;;;;;16.00;63.92;100726.22;11285710;26;20002;-63
2024/04/14 05:16:41;;;;;;;3.40;2.22;;;;;;;15.97;63.83;100737.44;11291214;26;20009;-63
2024/04/14 05:21:43;;;;;;;5.40;2.85;;;;;;;15.99;63.51;100739.97;11292584;26;20002;-61
2024/04/14 05:26:45;;;;;;;1.65;0.70;;;;;;;16.01;62.67;100735.16;11291997;26;20002;-61
2024/04/14 05:31:47;;;;;;;1.55;0.55;;;;;;;16.19;60.43;100748.16;11286781;26;19995;-61
2024/04/14 05:36:49;;;;;;;1.80;0.40;;;;;;;16.38;58.72;100744.69;11293985;26;20010;-61
2024/04/14 05:41:51;;;;;;;2.53;0.50;;;;;;;16.60;57.41;100744.53;11294163;26;20002;-62
2024/04/14 05:46:53;;;;;;;2.47;0.70;;;;;;;16.77;55.89;100753.97;11280986;26;20021;-62
2024/04/14 05:51:55;;;;;;;2.15;0.52;;;;;;;16.94;54.78;100757.16;11296927;26;20002;-59
2024/04/14 05:56:56;;;;;;;1.88;0.30;;;;;;;17.10;53.81;100760.47;11295386;26;19998;-62
2024/04/14 06:01:58;;;;;;;0.60;0.40;;;;;;;17.18;52.59;100754.84;11265494;26;20014;-62
2024/04/14 06:07:00;;;;;;;0.90;0.52;;;;;;;17.31;52.01;100756.72;11282964;26;20017;-62
2024/04/14 06:12:01;;;;;;;6.07;0.63;;;;;;;17.42;50.69;100753.38;11294320;26;20010;-62
2024/04/14 06:17:03;;;;;;;1.58;0.35;;;;;;;17.56;50.11;100757.72;11284984;26;20003;-63
2024/04/14 06:22:05;;;;;;;2.03;0.40;;;;;;;17.66;49.63;100770.06;11284477;26;20003;-62
2024/04/14 06:27:06;;;;;;;2.15;0.40;;;;;;;17.79;49.76;100775.44;11290623;26;20011;-63
2024/04/14 06:32:08;;;;;;;0.82;0.40;;;;;;;17.80;49.32;100780.69;11258828;26;20003;-62
2024/04/14 06:37:16;;;;;;;2.17;0.50;;;;;;;18.02;48.73;100762.22;11301590;26;20021;-62
2024/04/14 06:42:17;;;;;;;4.10;0.40;;;;;;;18.16;49.32;100765.72;11285841;26;20013;-62
2024/04/14 06:47:19;;;;;;;4.07;0.43;;;;;;;18.23;49.26;100771.16;11297512;26;20450;-62
2024/04/14 06:52:20;;;;;;;1.90;0.60;;;;;;;18.26;48.45;100781.59;11296217;26;20002;-62
2024/04/14 06:57:22;;;;;;;1.65;0.30;;;;;;;18.32;48.87;100778.00;11292605;26;20002;-62
2024/04/14 07:02:23;;;;;;;0.70;0.30;;;;;;;18.40;48.29;100777.78;11279761;26;20003;-62
2024/04/14 07:07:28;;;;;;;0.55;0.30;;;;;;;18.47;47.83;100777.72;11287742;26;20018;-60
2024/04/14 07:12:32;;;;;;;4.15;0.30;;;;;;;18.60;46.78;100777.66;11297043;26;20015;-66
2024/04/14 07:17:33;;;;;;;0.95;0.30;;;;;;;18.74;47.06;100793.91;11294963;26;19999;-60
2024/04/14 07:22:35;;;;;;;0.40;0.22;;;;;;;18.74;46.20;100789.31;11285410;26;20012;-58
2024/04/14 07:27:36;;;;;;;2.28;0.40;;;;;;;18.86;45.45;100792.22;11310037;26;20020;-58
2024/04/14 07:32:38;;;;;;;0.88;0.30;;;;;;;19.07;44.96;100787.44;11296386;26;20599;-58
2024/04/14 07:37:39;;;;;;;1.67;0.40;;;;;;;19.41;44.84;100799.72;11287936;26;20544;-60
2024/04/14 07:42:41;;;;;;;0.60;0.40;;;;;;;19.25;45.05;100805.75;11301353;26;20007;-59
2024/04/14 07:47:43;;;;;;;0.45;0.30;;;;;;;19.56;44.74;100808.38;11293193;26;20357;-58
2024/04/14 07:52:45;;;;;;;2.28;0.40;;;;;;;19.65;43.79;100803.50;11293766;26;20002;-59
2024/04/14 07:57:46;;;;;;;2.20;0.40;;;;;;;20.01;43.75;100799.97;11296028;26;20002;-61
2024/04/14 08:02:48;;;;;;;2.45;0.30;;;;;;;20.27;43.69;100808.94;11294575;26;20002;-58
2024/04/14 08:07:54;;;;;;;1.92;0.40;;;;;;;19.96;43.83;100809.91;11309026;26;20023;-59
2024/04/14 08:12:55;;;;;;;0.98;0.30;;;;;;;20.02;43.68;100798.09;11289089;26;20014;-62
2024/04/14 08:17:58;;;;;;;1.15;0.80;;;;;;;20.41;42.86;100804.13;11252390;26;20461;-62
2024/04/14 08:22:59;;;;;;;2.42;0.35;;;;;;;20.39;42.95;100807.09;11284001;26;20017;-62
2024/04/14 08:28:01;;;;;;;2.75;0.25;;;;;;;20.61;42.66;100801.16;11290862;26;20034;-62
2024/04/14 08:33:02;;;;;;;2.45;0.30;;;;;;;20.73;42.90;100802.03;11293266;26;20006;-62
2024/04/14 08:38:04;;;;;;;1.00;0.38;;;;;;;21.12;41.96;100801.66;11282127;26;20006;-62
2024/04/14 08:43:06;;;;;;;1.75;0.60;;;;;;;21.06;42.47;100800.69;11289529;26;20010;-62
2024/04/14 08:48:10;;;;;;;2.20;0.32;;;;;;;21.17;41.98;100791.69;11285303;26;20119;-62
2024/04/14 08:53:14;;;;;;;1.58;0.30;;;;;;;21.17;42.00;100804.53;11291516;26;20007;-62
2024/04/14 08:58:18;;;;;;;1.02;0.40;;;;;;;20.98;42.36;100801.03;11291927;26;20469;-62
2024/04/14 09:03:22;;;;;;;3.30;0.50;;;;;;;20.92;42.02;100810.19;11294598;26;20028;-62
2024/04/14 09:08:25;;;;;;;2.97;0.32;;;;;;;21.40;41.04;100800.97;11287629;26;20452;-62
2024/04/14 09:13:28;;;;;;;3.67;0.40;;;;;;;21.44;41.10;100802.19;11288072;26;20067;-62
2024/04/14 09:18:30;;;;;;;1.75;0.30;;;;;;;21.76;40.75;100797.22;11296628;26;20006;-62
2024/04/14 09:23:31;;;;;;;0.80;0.40;;;;;;;21.63;40.77;100799.38;11295235;26;20018;-62
2024/04/14 09:28:33;;;;;;;0.70;0.30;;;;;;;21.70;40.66;100806.38;11297772;26;20002;-68
2024/04/14 09:33:34;;;;;;;3.85;0.40;;;;;;;21.64;40.83;100806.50;11294669;26;20010;-68
2024/04/14 09:38:36;;;;;;;3.80;0.30;;;;;;;21.82;40.54;100814.59;11288192;26;20010;-68
2024/04/14 09:43:38;;;;;;;0.45;0.28;;;;;;;21.79;40.67;100809.59;11289806;26;20014;-67
2024/04/14 09:48:41;;;;;;;1.65;0.40;;;;;;;21.78;40.56;100805.16;11290407;26;20011;-67
2024/04/14 09:53:44;;;;;;;1.45;0.32;;;;;;;21.93;40.35;100800.03;11290796;26;20003;-67
2024/04/14 09:58:46;;;;;;;3.72;0.45;;;;;;;22.11;39.85;100795.50;11296439;26;19999;-65
2024/04/14 10:03:51;;;;;;;1.15;0.30;;;;;;;22.18;39.89;100798.94;11295487;26;19999;-64
2024/04/14 10:08:53;;;;;;;0.52;0.30;;;;;;;22.36;39.34;100800.69;11283551;26;20335;-67
2024/04/14 10:13:55;;;;;;;1.92;0.35;;;;;;;22.45;39.08;100795.66;11287479;26;20002;-67
2024/04/14 10:19:04;;;;;;;1.98;0.30;;;;;;;23.04;38.08;100779.75;11293679;26;20015;-63
2024/04/14 10:24:10;;;;;;;0.73;0.20;;;;;;;25.08;35.26;100774.41;11290857;26;20566;-68
2024/04/14 10:29:12;;;;;;;1.98;0.28;;;;;;;26.47;33.03;100771.38;11301032;26;20449;-67
2024/04/14 10:34:21;;;;;;;0.85;0.45;;;;;;;27.78;31.51;100767.25;11279938;26;20017;-67
2024/04/14 10:39:24;;;;;;;1.65;0.22;;;;;;;25.65;33.47;100781.19;11307730;26;20053;-66
2024/04/14 10:44:25;;;;;;;1.30;0.40;;;;;;;25.42;34.34;100772.25;11282364;26;20002;-67
2024/04/14 10:49:27;;;;;;;0.70;0.30;;;;;;;24.98;34.45;100786.19;11284404;26;20010;-68
2024/04/14 10:54:29;;;;;;;2.75;0.60;;;;;;;24.71;34.73;100773.28;11294810;26;20006;-68
2024/04/14 10:59:31;;;;;;;1.42;0.20;;;;;;;24.61;34.49;100764.94;11289001;26;20006;-65
2024/04/14 11:04:33;;;;;;;0.70;0.20;;;;;;;24.80;34.48;100759.88;11289294;26;19999;-67
2024/04/14 11:09:36;;;;;;;1.50;0.20;;;;;;;25.05;33.87;100762.03;11285684;26;20093;-68
2024/04/14 11:14:37;;;;;;;2.10;0.35;;;;;;;24.76;34.02;100750.47;11295015;26;20027;-67
2024/04/14 11:19:39;;;;;;;0.60;0.20;;;;;;;24.89;33.70;100754.75;11284837;26;20606;-65
2024/04/14 11:24:40;;;;;;;0.43;0.10;;;;;;;24.89;33.63;100750.06;11298445;26;20026;-67
2024/04/14 11:29:42;;;;;;;1.70;0.20;;;;;;;25.12;32.81;100740.63;11287244;26;19998;-66
2024/04/14 11:34:50;;;;;;;0.50;0.15;;;;;;;27.18;29.97;100724.84;11291389;26;20345;-65
2024/04/14 11:39:52;;;;;;;1.75;0.30;;;;;;;28.77;27.44;100726.94;11285499;26;20343;-68
2024/04/14 11:44:55;;;;;;;1.45;0.20;;;;;;;30.61;25.89;100726.84;11288441;26;20013;-67
2024/04/14 11:49:56;;;;;;;2.08;0.20;;;;;;;30.37;25.25;100730.53;11293926;26;20011;-67
2024/04/14 11:54:58;;;;;;;1.33;0.20;;;;;;;32.16;24.36;100732.03;11288426;26;20010;-67
2024/04/14 11:59:59;;;;;;;1.05;0.10;;;;;;;31.23;24.49;100715.53;11285366;26;20013;-66
2024/04/14 12:05:01;;;;;;;0.57;0.10;;;;;;;31.67;23.26;100718.88;11288310;26;20079;-66
2024/04/14 12:10:03;;;;;;;1.92;0.57;;;;;;;29.59;25.74;100715.13;11257566;26;20036;-66
2024/04/14 12:15:05;;;;;;;2.05;0.73;;;;;;;31.00;24.37;100707.06;11277982;26;20003;-67
2024/04/14 12:20:06;;;;;;;2.90;0.17;;;;;;;31.81;23.14;100703.00;11286744;26;20003;-68
2024/04/14 12:25:08;;;;;;;0.57;0.10;;;;;;;32.30;22.77;100687.47;11296002;26;20812;-66
2024/04/14 12:30:10;;;;;;;0.60;0.10;;;;;;;30.21;24.93;100684.66;11297177;26;20007;-68
2024/04/14 12:35:11;;;;;;;0.35;0.20;;;;;;;29.55;26.14;100701.03;11291369;26;20445;-66
2024/04/14 12:40:13;;;;;;;1.20;0.20;;;;;;;29.68;25.88;100691.19;11292266;26;20014;-67
2024/04/14 12:45:15;;;;;;;3.08;0.20;;;;;;;31.26;24.67;100669.63;11294909;26;20002;-66
2024/04/14 12:50:18;;;;;;;1.65;0.40;;;;;;;31.87;23.51;100675.91;11296550;26;20018;-67
2024/04/14 12:55:33;;;;;;;1.00;0.30;;;;;;;31.66;23.37;100667.22;11292936;26;20449;-66
2024/04/14 13:00:36;;;;;;;1.98;0.20;;;;;;;31.41;23.64;100650.69;11290138;26;19995;-68
2024/04/14 13:05:37;;;;;;;3.95;0.30;;;;;;;31.91;23.31;100655.53;11298381;26;22044;-67
2024/04/14 13:10:39;;;;;;;1.45;0.30;;;;;;;32.12;23.12;100642.00;11297060;26;20013;-69
2024/04/14 13:15:41;;;;;;;0.63;0.20;;;;;;;31.66;23.64;100636.63;11291681;26;19998;-66
2024/04/14 13:20:42;;;;;;;0.60;0.20;;;;;;;32.09;23.22;100623.16;11286579;26;20801;-68
2024/04/14 13:25:44;;;;;;;2.95;0.20;;;;;;;32.89;23.11;100617.00;11290232;26;20007;-67
2024/04/14 13:30:45;;;;;;;4.40;0.22;;;;;;;33.16;22.59;100618.78;11291887;26;20003;-68
2024/04/14 13:35:47;;;;;;;1.45;0.45;;;;;;;33.67;21.79;100608.97;11285365;26;20003;-70
2024/04/14 13:40:48;;;;;;;0.60;0.20;;;;;;;33.22;22.51;100602.72;11292738;26;20021;-69
2024/04/14 13:45:50;;;;;;;1.25;0.30;;;;;;;33.94;21.82;100590.25;11257365;26;20392;-67
2024/04/14 13:50:51;;;;;;;1.23;0.20;;;;;;;34.12;21.76;100580.72;11290067;26;20092;-70
2024/04/14 13:55:53;;;;;;;1.05;0.22;;;;;;;33.06;22.70;100588.38;11251381;26;20465;-72
2024/04/14 14:00:56;;;;;;;0.98;0.30;;;;;;;33.16;22.60;100575.03;11297882;26;20041;-73
2024/04/14 14:05:57;;;;;;;2.33;0.30;;;;;;;33.15;22.62;100567.00;11297000;26;20002;-72
2024/04/14 14:10:59;;;;;;;0.93;0.20;;;;;;;33.69;22.34;100550.06;11305243;26;20005;-59
2024/04/14 14:16:00;;;;;;;1.77;0.20;;;;;;;33.41;22.34;100544.75;11311414;26;20003;-60
2024/04/14 14:21:03;;;;;;;1.75;0.20;;;;;;;32.61;23.23;100539.22;11307919;26;20002;-61
2024/04/14 14:26:04;;;;;;;1.10;0.20;;;;;;;31.48;24.62;100539.19;11310643;26;20020;-60
2024/04/14 14:31:06;;;;;;;1.55;0.30;;;;;;;30.83;25.37;100534.66;11296150;26;19998;-59
2024/04/14 14:36:26;;;;;;;2.67;0.20;;;;;;;30.66;24.71;100535.25;11289335;26;20812;-60
2024/04/14 14:41:28;;;;;;;1.58;0.22;;;;;;;31.55;24.21;100519.28;11289909;26;20072;-60
2024/04/14 14:46:31;;;;;;;1.08;0.20;;;;;;;30.49;25.40;100510.88;11285490;26;20002;-59
2024/04/14 14:51:33;;;;;;;0.80;0.20;;;;;;;29.99;26.09;100507.81;11283960;26;20075;-59
2024/04/14 14:56:34;;;;;;;2.45;0.30;;;;;;;29.06;26.75;100497.22;11285202;26;20443;-60
2024/04/14 15:01:36;;;;;;;5.28;0.30;;;;;;;29.01;26.75;100488.97;11277820;26;20017;-60
2024/04/14 15:06:38;;;;;;;0.40;0.20;;;;;;;28.95;26.77;100484.59;11256829;26;20002;-58
2024/04/14 15:11:39;;;;;;;0.77;0.20;;;;;;;28.80;27.29;100485.63;11287347;26;20013;-60
2024/04/14 15:16:41;;;;;;;0.82;0.30;;;;;;;28.99;27.13;100486.50;11282507;26;20002;-62
2024/04/14 15:21:42;;;;;;;0.75;0.30;;;;;;;28.79;27.45;100470.97;11288643;26;20010;-62
2024/04/14 15:26:44;;;;;;;1.15;0.20;;;;;;;27.99;28.66;100486.13;11288884;26;20472;-62
2024/04/14 15:31:45;;;;;;;1.60;0.28;;;;;;;27.79;28.45;100472.47;11278757;26;20006;-61
2024/04/14 15:36:47;;;;;;;0.43;0.20;;;;;;;27.36;28.78;100467.50;11290065;26;20017;-61
2024/04/14 15:41:49;;;;;;;1.17;0.20;;;;;;;27.89;28.10;100464.13;11282747;26;20002;-61
2024/04/14 15:46:50;;;;;;;1.60;0.22;;;;;;;27.86;28.54;100456.38;11259462;26;20262;-61
2024/04/14 15:51:52;;;;;;;1.23;0.47;;;;;;;27.96;28.44;100436.97;11290286;26;20720;-61
2024/04/14 15:56:53;;;;;;;2.33;0.50;;;;;;;27.92;28.73;100446.94;11286291;26;20671;-60
2024/04/14 16:01:55;;;;;;;2.40;0.40;;;;;;;28.08;28.90;100444.88;11288358;26;20002;-62
2024/04/14 16:06:56;;;;;;;3.35;0.50;;;;;;;28.50;28.61;100435.03;11267172;26;20005;-62
2024/04/14 16:11:58;;;;;;;3.67;0.52;;;;;;;28.26;29.45;100424.81;11289858;26;20038;-61
2024/04/14 16:17:01;;;;;;;3.47;0.80;;;;;;;27.90;29.54;100429.84;11267200;26;20021;-61
2024/04/14 16:22:03;;;;;;;5.93;0.80;;;;;;;27.78;30.07;100415.56;11299515;26;20607;-61
2024/04/14 16:27:05;;;;;;;1.20;0.70;;;;;;;27.69;30.09;100407.88;11286422;26;20480;-61
2024/04/14 16:32:06;;;;;;;1.67;0.55;;;;;;;27.81;30.55;100406.69;11283799;26;20086;-61
2024/04/14 16:37:08;;;;;;;3.00;0.63;;;;;;;27.89;30.67;100406.91;11254298;26;20110;-61
2024/04/14 16:42:10;;;;;;;2.78;0.50;;;;;;;27.62;30.63;100409.34;11292661;26;19998;-60
2024/04/14 16:47:12;;;;;;;2.83;0.45;;;;;;;27.31;30.83;100409.53;11300552;26;20002;-61
2024/04/14 16:52:14;;;;;;;4.68;0.80;;;;;;;26.90;31.59;100410.59;11294395;26;20101;-61
2024/04/14 16:57:15;;;;;;;3.60;0.55;;;;;;;26.60;31.71;100408.81;11301884;26;20037;-61
2024/04/14 17:02:17;;;;;;;4.20;0.80;;;;;;;26.18;31.89;100396.22;11293659;26;20871;-61
2024/04/14 17:07:19;;;;;;;2.45;0.88;;;;;;;25.81;32.23;100405.63;11293642;26;20419;-62
2024/04/14 17:12:20;;;;;;;4.68;0.55;;;;;;;25.46;32.86;100399.00;11293469;26;20003;-61
2024/04/14 17:17:22;;;;;;;2.83;0.70;;;;;;;25.13;33.07;100395.63;11293674;26;20084;-61
2024/04/14 17:22:24;;;;;;;1.42;0.60;;;;;;;24.70;33.81;100402.34;11285054;26;20087;-61
2024/04/14 17:27:26;;;;;;;4.95;0.50;;;;;;;24.32;34.14;100409.84;11292639;26;20065;-61
2024/04/14 17:32:28;;;;;;;2.53;0.60;;;;;;;23.93;34.69;100413.75;11302039;26;20017;-62
2024/04/14 17:37:30;;;;;;;3.55;0.60;;;;;;;23.52;35.08;100401.56;11298102;26;20006;-62
2024/04/14 17:42:32;;;;;;;3.05;0.50;;;;;;;23.23;35.65;100404.56;11293460;26;20023;-61
2024/04/14 17:47:34;;;;;;;1.95;0.60;;;;;;;22.82;35.81;100395.03;11293387;26;20003;-62
2024/04/14 17:52:37;;;;;;;4.03;1.35;;;;;;;22.62;36.22;100390.16;11295920;26;20003;-62
2024/04/14 17:57:39;;;;;;;2.88;0.73;;;;;;;22.30;37.04;100385.34;11294271;26;19998;-61
2024/04/14 18:02:40;;;;;;;2.55;0.80;;;;;;;21.93;37.52;100383.97;11286393;26;20002;-62
2024/04/14 18:07:43;;;;;;;3.67;1.10;;;;;;;21.48;38.41;100387.63;11302324;26;20336;-61
2024/04/14 18:12:46;;;;;;;4.40;0.80;;;;;;;21.12;38.90;100386.13;11253691;26;20015;-62
2024/04/14 18:17:47;;;;;;;1.88;0.70;;;;;;;20.78;39.33;100373.19;11284245;26;20002;-62
2024/04/14 18:22:49;;;;;;;4.60;1.10;;;;;;;20.62;39.48;100379.44;11286465;26;20098;-62
2024/04/14 18:27:51;;;;;;;1.92;0.65;;;;;;;20.54;39.94;100374.31;11290387;26;20047;-62
2024/04/14 18:32:52;;;;;;;2.40;0.90;;;;;;;20.45;39.69;100373.03;11284246;26;20051;-68
2024/04/14 18:37:54;;;;;;;2.00;0.70;;;;;;;20.36;40.35;100378.88;11292610;26;20014;-61
2024/04/14 18:42:56;;;;;;;6.07;0.77;;;;;;;20.24;40.64;100385.41;11289894;26;20024;-60
2024/04/14 18:47:58;;;;;;;4.75;0.90;;;;;;;20.09;40.91;100381.25;11289290;26;20460;-60
2024/04/14 18:53:00;;;;;;;3.38;0.80;;;;;;;19.94;41.08;100380.91;11264875;26;20348;-61
2024/04/14 18:58:02;;;;;;;2.58;0.60;;;;;;;19.79;41.63;100378.66;11281966;26;20339;-60
2024/04/14 19:03:04;;;;;;;5.93;0.90;;;;;;;19.60;41.54;100378.72;11279278;26;19998;-60
2024/04/14 19:08:06;;;;;;;1.95;0.82;;;;;;;19.41;41.67;100369.81;11298225;26;19995;-60
2024/04/14 19:13:09;;;;;;;6.88;0.95;;;;;;;19.28;41.72;100361.81;11292914;26;20013;-61
2024/04/14 19:18:11;;;;;;;3.30;0.95;;;;;;;19.15;42.46;100370.19;11286860;26;20009;-61
2024/04/14 19:23:13;;;;;;;2.45;0.70;;;;;;;19.01;42.23;100359.47;11295377;26;20017;-61
2024/04/14 19:28:15;;;;;;;5.70;1.42;;;;;;;18.94;42.58;100352.50;11291869;26;20003;-61
2024/04/14 19:33:17;;;;;;;2.53;0.75;;;;;;;18.90;42.68;100359.44;11293234;26;20219;-61
2024/04/14 19:38:19;;;;;;;3.80;0.90;;;;;;;18.85;42.53;100354.69;11296457;26;20464;-61
2024/04/14 19:43:21;;;;;;;1.45;0.90;;;;;;;18.79;42.40;100347.41;11288457;26;20054;-60
2024/04/14 19:48:26;;;;;;;3.33;1.10;;;;;;;18.75;42.84;100344.31;11289707;26;20011;-60
2024/04/14 19:53:30;;;;;;;3.33;0.88;;;;;;;18.57;42.64;100334.28;11269287;26;20002;-60
2024/04/14 19:58:32;;;;;;;3.95;0.75;;;;;;;18.51;42.87;100323.50;11285808;26;20546;-60
2024/04/14 20:03:34;;;;;;;1.42;0.60;;;;;;;18.44;43.05;100312.66;11293615;26;20003;-60
2024/04/14 20:08:36;;;;;;;3.83;1.05;;;;;;;18.34;42.98;100321.38;11255354;26;20096;-60
2024/04/14 20:13:38;;;;;;;1.40;0.60;;;;;;;18.25;43.24;100320.03;11259408;26;20468;-59
2024/04/14 20:18:40;;;;;;;9.10;1.90;;;;;;;18.16;43.30;100308.59;11256227;26;20010;-60
2024/04/14 20:23:43;;;;;;;4.05;0.65;;;;;;;18.13;43.40;100314.53;11242255;26;20007;-60
2024/04/14 20:28:46;;;;;;;1.98;0.80;;;;;;;18.09;43.61;100301.56;11253770;26;20003;-60
2024/04/14 20:33:48;;;;;;;2.65;0.75;;;;;;;18.03;43.34;100298.72;11254868;26;20084;-59
2024/04/14 20:38:53;;;;;;;5.38;0.82;;;;;;;18.00;43.66;100296.44;11279406;26;19995;-60
2024/04/14 20:43:54;;;;;;;4.25;0.88;;;;;;;17.96;43.89;100284.34;11283833;26;19998;-60
2024/04/14 20:48:56;;;;;;;2.03;1.00;;;;;;;17.84;43.91;100283.44;11261627;26;20014;-60
2024/04/14 20:53:58;;;;;;;4.95;1.00;;;;;;;17.72;44.58;100274.34;11294107;26;20412;-60
2024/04/14 20:58:59;;;;;;;8.20;0.90;;;;;;;17.56;45.01;100268.44;11267024;26;20333;-60
2024/04/14 21:04:01;;;;;;;4.15;0.85;;;;;;;17.52;44.79;100266.41;11288478;26;20014;-60
2024/04/14 21:09:04;;;;;;;1.95;0.70;;;;;;;17.53;44.93;100257.19;11259422;26;20018;-62
2024/04/14 21:14:05;;;;;;;1.13;0.55;;;;;;;17.48;45.32;100257.84;11290655;26;20046;-63
2024/04/14 21:19:07;;;;;;;1.90;0.60;;;;;;;17.49;45.29;100248.63;11261763;26;20021;-61
2024/04/14 21:24:09;;;;;;;5.78;1.40;;;;;;;17.44;45.65;100235.72;11276595;26;20082;-63
2024/04/14 21:29:11;;;;;;;8.25;1.30;;;;;;;17.23;46.15;100236.97;11295519;26;20010;-63
2024/04/14 21:34:12;;;;;;;3.70;0.75;;;;;;;17.15;46.39;100231.00;11301340;26;20310;-61
2024/04/14 21:39:14;;;;;;;4.15;0.85;;;;;;;17.26;46.06;100219.41;11289795;26;20021;-62
2024/04/14 21:44:15;;;;;;;8.45;0.90;;;;;;;17.29;46.21;100221.66;11302192;26;20021;-63
2024/04/14 21:49:17;;;;;;;3.85;1.08;;;;;;;17.24;46.79;100216.91;11282450;26;20034;-63
2024/04/14 21:54:22;;;;;;;3.50;1.00;;;;;;;17.15;47.22;100210.06;11289175;26;20014;-61
2024/04/14 21:59:25;;;;;;;5.07;1.33;;;;;;;17.12;47.28;100210.53;11283571;26;20006;-62
2024/04/14 22:04:27;;;;;;;4.00;1.05;;;;;;;16.99;47.45;100216.91;11284118;26;19998;-61
2024/04/14 22:09:29;;;;;;;2.70;0.90;;;;;;;16.74;48.04;100211.41;11288142;26;20038;-61
2024/04/14 22:14:30;;;;;;;7.05;1.27;;;;;;;16.63;48.22;100217.56;11289460;26;20013;-62
2024/04/14 22:19:32;;;;;;;4.10;1.52;;;;;;;16.63;47.69;100212.97;11298212;26;20017;-60
2024/04/14 22:24:33;;;;;;;2.13;1.10;;;;;;;16.60;47.92;100213.41;11261482;26;20017;-60
2024/04/14 22:29:35;;;;;;;3.20;0.93;;;;;;;16.62;47.54;100211.28;11289192;26;20018;-60
2024/04/14 22:34:36;;;;;;;2.28;0.60;;;;;;;16.61;47.91;100217.78;11282484;26;20013;-60
2024/04/14 22:39:38;;;;;;;2.28;0.70;;;;;;;16.63;47.67;100214.84;11291375;26;20010;-60
2024/04/14 22:44:40;;;;;;;4.55;1.35;;;;;;;16.60;47.75;100209.84;11287715;26;20521;-60
2024/04/14 22:49:41;;;;;;;4.57;1.15;;;;;;;16.65;47.95;100205.44;11285000;26;20705;-60
2024/04/14 22:54:43;;;;;;;2.78;1.23;;;;;;;16.70;47.71;100206.66;11292867;26;19999;-60
2024/04/14 22:59:44;;;;;;;2.88;0.75;;;;;;;16.71;47.20;100211.06;11290141;26;20010;-60
2024/04/14 23:04:46;;;;;;;4.22;1.00;;;;;;;16.69;47.45;100211.25;11294318;26;20025;-60
2024/04/14 23:09:47;;;;;;;3.88;0.80;;;;;;;16.80;47.17;100213.25;11286537;26;20023;-61